CDT,Max TemperatureF,Mean TemperatureF,Min TemperatureF,Max Dew PointF,MeanDew PointF,Min DewpointF,Max Humidity, Mean Humidity, Min Humidity, Max Sea Level PressureIn, Mean Sea Level PressureIn, Min Sea Level PressureIn, Max VisibilityMiles, Mean VisibilityMiles, Min VisibilityMiles, Max Wind SpeedMPH, Mean Wind SpeedMPH, Max Gust SpeedMPH,PrecipitationIn, CloudCover, Events, WindDirDegrees
2012-7-1,102,90,77,73,70,67,88,56,34,29.95,29.90,29.87,10,8,4,18,7,24,0.00,0,,209
2012-7-2,100,87,75,72,69,64,90,60,32,30.00,29.95,29.91,10,9,6,15,4,23,0.00,1,Thunderstorm,225
2012-7-3,91,83,75,75,72,69,90,72,54,30.02,29.95,29.87,10,10,5,13,4,18,0.05,2,Rain-Thunderstorm,186
2012-7-4,100,86,73,73,71,64,96,71,32,29.97,29.93,29.87,10,8,1,12,2,,0.00,0,,184
2012-7-5,105,90,75,74,69,64,87,54,27,29.98,29.93,29.88,10,10,5,12,4,,0.00,0,,217
2012-7-6,104,88,75,73,70,66,90,59,31,30.00,29.94,29.89,10,10,5,28,3,36,0.00,1,Rain-Thunderstorm,200
2012-7-7,100,88,75,76,73,71,88,63,39,29.98,29.93,29.88,10,10,9,10,3,,0.00,0,,194
2012-7-8,98,85,73,74,72,70,94,75,44,30.01,29.94,29.86,10,8,1,16,6,33,0.63,2,Rain-Thunderstorm,118
2012-7-9,90,82,73,75,72,69,94,74,55,30.01,29.95,29.90,10,9,4,10,5,,0.00,1,Thunderstorm,34
2012-7-10,91,83,75,74,72,67,94,77,45,30.00,29.96,29.91,10,6,1,15,4,23,0.33,4,Rain-Thunderstorm,75
2012-7-11,91,82,72,73,71,68,93,76,52,30.01,29.97,29.94,10,8,4,10,4,,0.00,2,Thunderstorm,71
2012-7-12,88,78,70,72,70,66,90,74,57,30.02,29.98,29.95,10,10,7,10,5,,0.00,1,,76
2012-7-13,88,80,72,74,71,69,94,78,55,30.05,30.01,29.97,10,10,8,9,2,,0.00,2,,104
2012-7-14,84,78,73,75,72,68,94,84,69,30.10,30.05,29.99,10,8,2,16,4,23,0.50,4,Rain-Thunderstorm,142
2012-7-15,89,80,72,76,73,71,97,81,61,30.13,30.07,30.00,10,10,7,9,2,,0.00,3,,147
2012-7-16,91,82,73,75,74,72,94,77,57,30.06,29.99,29.92,10,10,7,13,4,17,0.00,1,,193
2012-7-17,93,84,75,77,74,72,94,72,50,29.96,29.92,29.86,10,10,8,14,4,17,0.00,1,Thunderstorm,190
2012-7-18,98,86,77,82,76,72,94,73,49,29.96,29.91,29.85,10,10,7,10,4,,0.00,0,Thunderstorm,191
2012-7-19,102,90,75,77,73,70,94,68,37,29.96,29.90,29.84,10,9,0,32,8,56,0.50,2,Rain-Thunderstorm,194
2012-7-20,93,83,73,76,72,69,93,71,52,29.97,29.91,29.87,10,10,10,10,5,45,0.00,1,,40
2012-7-21,91,81,72,70,68,64,90,67,42,30.04,30.00,29.97,10,10,10,9,6,,0.00,0,,44
2012-7-22,93,81,69,76,71,65,91,71,50,30.09,30.05,30.01,10,10,10,7,2,,0.00,0,,106
2012-7-23,95,83,73,77,74,72,100,78,49,30.13,30.07,30.01,10,8,1,14,4,,0.00,0,,198
2012-7-24,97,86,75,76,74,72,91,70,49,30.04,29.97,29.88,10,10,10,13,7,18,0.00,0,,203
2012-7-25,98,87,77,75,73,69,90,65,40,29.92,29.85,29.78,10,10,10,15,8,22,0.00,0,,206
2012-7-26,99,84,71,76,72,66,97,74,42,29.91,29.82,29.69,10,9,2,29,10,41,0.51,3,Rain-Thunderstorm,204
2012-7-27,91,81,71,77,71,63,100,82,55,30.00,29.93,29.87,10,7,0,36,5,46,0.35,2,Fog-Rain-Thunderstorm,215
2012-7-28,91,80,68,72,68,65,96,70,41,30.07,30.02,29.97,10,10,10,8,3,,0.00,0,,40
2012-7-29,84,76,69,72,69,66,94,83,62,30.13,30.02,29.92,10,10,5,13,3,,0.09,2,Rain-Thunderstorm,88
2012-7-30,97,85,73,79,73,69,91,71,43,29.91,29.86,29.81,10,10,9,12,6,17,0.00,1,,137
2012-7-31,95,83,73,78,74,72,94,74,50,29.94,29.89,29.85,10,8,2,7,2,,0.00,1,,161